NCAR-RAP Real-Time Weather Data

Output produced by METARs form (23 February 2020  02:15 UTC)
found at http://weather.rap.ucar.edu/surface/
 
KDEN 230153Z 17011KT 10SM OVC180 03/M02 A2998 RMK AO2 SLP154 T00331022
KDEN 230053Z 14009KT 10SM FEW090 BKN160 BKN220 04/M02 A2997 RMK AO2 SLP135 T00391017
KDEN 222353Z 15011KT 10SM FEW090 BKN160 BKN220 06/M02 A2996 RMK AO2 SLP137 T00611022 10100 20061 56008
KDEN 222253Z 16012KT 10SM FEW100 SCT150 BKN220 08/M02 A2997 RMK AO2 SLP129 T00831022
KDEN 222153Z 15019KT 10SM FEW100 SCT150 BKN220 10/M03 A2998 RMK AO2 SLP133 T01001028
KDEN 222053Z 13016KT 10SM FEW110 FEW150 BKN220 09/M03 A2999 RMK AO2 SLP141 T00941033 56021
KDEN 221953Z 13012KT 10SM FEW110 BKN220 09/M03 A3000 RMK AO2 SLP147 T00891033
KDEN 221853Z 13010KT 10SM FEW100 FEW150 BKN220 08/M02 A3004 RMK AO2 SLP161 T00831022
KDEN 221753Z 16007KT 10SM FEW150 BKN200 08/M03 A3006 RMK AO2 SLP170 T00781028 10078 21017 58004
KDEN 221653Z 13006KT 10SM FEW150 BKN200 06/M03 A3007 RMK AO2 SLP176 T00611028
KDEN 221553Z 14007KT 10SM SCT150 BKN200 03/M05 A3008 RMK AO2 SLP185 T00331050
KDEN 221453Z 15011KT 10SM FEW100 SCT150 BKN200 01/M07 A3008 RMK AO2 SLP192 ACSL OMTNS DSNT NW T00111067 53002
KDEN 221353Z 16009KT 10SM FEW100 BKN180 BKN250 00/M08 A3006 RMK AO2 SLP190 T00001083
KDEN 221253Z 18005KT 10SM BKN220 06/M12 A3006 RMK AO2 SLP171 T00561117
KDEN 221153Z 21008KT 10SM BKN220 02/M09 A3007 RMK AO2 SLP177 T00171089 10033 20000 55006
KDEN 221053Z 23006KT 10SM BKN220 03/M10 A3006 RMK AO2 SLP168 T00331100
KDEN 220953Z 22011KT 10SM BKN220 02/M09 A3008 RMK AO2 SLP173 T00171089
KDEN 220853Z 23009KT 10SM SCT220 00/M09 A3009 RMK AO2 SLP181 T00001089 57005
KDEN 220753Z 21010KT 10SM SCT220 01/M09 A3009 RMK AO2 SLP180 T00061089
KDEN 220653Z 22010KT 10SM FEW220 01/M09 A3010 RMK AO2 SLP185 T00111089 400781089
KDEN 220553Z 18005KT 10SM CLR 01/M08 A3010 RMK AO2 SLP190 T00061083 10044 21017 58011
KDEN 220453Z 21013KT 10SM FEW220 02/M08 A3012 RMK AO2 SLP202 T00171083
KDEN 220353Z 17014KT 10SM CLR 01/M08 A3012 RMK AO2 SLP210 T00111083
KDEN 220253Z 17012KT 10SM CLR 00/M07 A3014 RMK AO2 SLP226 T00001072 58001
KDEN 220153Z 16012KT 10SM CLR 00/M07 A3015 RMK AO2 SLP234 T00001067
KDEN 220053Z 15009KT 10SM FEW140 FEW220 02/M07 A3014 RMK AO2 SLP230 T00221067
KDEN 212353Z 16012KT 10SM FEW140 FEW220 04/M05 A3014 RMK AO2 SLP222 T00441050 10078 20044 56008
KDEN 212253Z 16011KT 10SM FEW140 SCT220 07/M06 A3015 RMK AO2 SLP224 T00671061
KDEN 212153Z 15009KT 10SM FEW140 SCT220 08/M07 A3015 RMK AO2 SLP220 T00781072
KDEN 212053Z 15011KT 10SM FEW140 FEW220 08/M07 A3017 RMK AO2 SLP226 T00781072 58026
KDEN 211953Z 16009KT 10SM FEW150 FEW220 08/M08 A3021 RMK AO2 SLP239 T00781078
KDEN 211853Z 18006KT 10SM FEW220 07/M08 A3024 RMK AO2 SLP251 T00671078
KDEN 211753Z 23008KT 10SM FEW220 06/M11 A3026 RMK AO2 SLP264 T00561106 10056 21072 58005
KDEN 211653Z 23011KT 10SM FEW220 02/M12 A3028 RMK AO2 SLP278 T00221122
KDEN 211553Z 23012KT 10SM FEW220 00/M14 A3030 RMK AO2 SLP283 T00001139
KDEN 211453Z 23014KT 10SM FEW220 M03/M15 A3028 RMK AO2 SLP296 T10331150 53003
KDEN 211353Z 24012KT 10SM FEW220 M06/M16 A3027 RMK AO2 SLP295 T10561156
KDEN 211253Z 24012KT 10SM FEW220 M07/M16 A3027 RMK AO2 SLP293 T10671156
KDEN 211153Z 22008KT 10SM CLR M06/M16 A3027 RMK AO2 SLP285 T10561156 11050 21089 56014
KDEN 211053Z 23009KT 10SM CLR M08/M16 A3027 RMK AO2 SLP286 T10831161
KDEN 210953Z 24010KT 10SM CLR M07/M16 A3029 RMK AO2 SLP291 T10721161
KDEN 210853Z 24010KT 10SM CLR M07/M16 A3032 RMK AO2 SLP304 T10721156 58016
KDEN 210753Z 23006KT 10SM CLR M07/M15 A3034 RMK AO2 SLP312 T10671150
KDEN 210653Z 21007KT 10SM CLR M06/M15 A3036 RMK AO2 SLP320 T10611150 410061161
KDEN 210553Z 21008KT 10SM CLR M07/M14 A3037 RMK AO2 SLP333 T10721139 11033 21100 58008
KDEN 210453Z 21006KT 10SM CLR M07/M14 A3039 RMK AO2 SLP347 T10721139
KDEN 210353Z 21006KT 10SM CLR M05/M12 A3040 RMK AO2 SLP348 T10501122
KDEN 210253Z 18007KT 10SM CLR M09/M13 A3040 RMK AO2 SLP362 T10891128 50000